Time;durP1;ratioP1;P1;durP2;ratioP2;P2;SDS_P1;SDS_P2;PMS_P1;PMS_P2;Temp;Humidity;BMP_temperature;BMP_pressure;BME280_temperature;BME280_humidity;BME280_pressure;Samples;Min_cycle;Max_cycle;Signal;HPM_P1;HPM_P2
2021/12/26 00:02:16;;;;;;;63.20;27.27;;;;;;;-8.67;83.26;97798.31;1736112;82;21009;-57
2021/12/26 00:04:42;;;;;;;99.92;36.25;;;;;;;-8.76;83.07;97795.35;1736389;82;20946;-56
2021/12/26 00:07:09;;;;;;;101.70;33.55;;;;;;;-8.84;83.06;97790.42;1736083;82;21430;-57
2021/12/26 00:09:36;;;;;;;109.67;37.48;;;;;;;-8.92;83.49;97801.41;1736315;82;21372;-57
2021/12/26 00:12:05;;;;;;;91.70;38.73;;;;;;;-9.00;84.37;97800.90;1735998;82;20954;-56
2021/12/26 00:14:32;;;;;;;91.82;33.98;;;;;;;-9.00;84.33;97790.39;1736527;82;28366;-56
2021/12/26 00:16:59;;;;;;;80.42;33.55;;;;;;;-8.98;84.05;97796.80;1736000;82;21443;-56
2021/12/26 00:19:26;;;;;;;74.00;32.28;;;;;;;-9.00;83.49;97805.33;1736322;82;21012;-56
2021/12/26 00:21:53;;;;;;;92.10;34.50;;;;;;;-9.06;83.88;97807.28;1736060;82;21403;-56
2021/12/26 00:24:20;;;;;;;89.70;38.70;;;;;;;-9.11;84.06;97806.47;1736153;82;21520;-56
2021/12/26 00:26:47;;;;;;;86.40;31.87;;;;;;;-9.13;84.64;97819.76;1733459;81;21044;-56
2021/12/26 00:29:14;;;;;;;84.90;31.70;;;;;;;-9.13;83.95;97817.62;1736381;82;21021;-56
2021/12/26 00:31:40;;;;;;;82.15;34.10;;;;;;;-9.16;83.56;97816.61;1736112;82;20975;-56
2021/12/26 00:34:08;;;;;;;86.28;35.68;;;;;;;-9.25;83.74;97817.58;1735914;82;38911;-57
2021/12/26 00:36:35;;;;;;;91.30;35.05;;;;;;;-9.29;83.59;97820.20;1735934;82;20996;-57
2021/12/26 00:39:04;;;;;;;79.58;31.65;;;;;;;-9.31;83.72;97815.58;1736376;82;21382;-56
2021/12/26 00:41:30;;;;;;;94.77;33.97;;;;;;;-9.33;83.57;97821.00;1736474;82;21043;-56
2021/12/26 00:43:57;;;;;;;90.35;37.83;;;;;;;-9.34;83.20;97817.22;1736359;82;21413;-57
2021/12/26 00:46:24;;;;;;;78.62;31.48;;;;;;;-9.39;84.42;97819.03;1736365;82;21401;-57
2021/12/26 00:48:51;;;;;;;78.42;31.12;;;;;;;-9.38;83.76;97818.05;1736283;82;21009;-56
2021/12/26 00:51:18;;;;;;;88.78;28.65;;;;;;;-9.39;84.04;97820.34;1735758;81;21060;-57
2021/12/26 00:53:45;;;;;;;86.30;30.77;;;;;;;-9.43;84.23;97824.24;1736550;82;21033;-56
2021/12/26 00:56:12;;;;;;;89.50;31.55;;;;;;;-9.45;84.12;97819.16;1736167;82;21040;-56
2021/12/26 00:58:39;;;;;;;88.87;32.67;;;;;;;-9.56;83.82;97821.26;1736552;82;21952;-57
2021/12/26 01:01:06;;;;;;;83.70;31.40;;;;;;;-9.53;83.71;97817.81;1736437;82;21008;-56
2021/12/26 01:03:33;;;;;;;79.25;34.13;;;;;;;-9.60;83.63;97815.98;1736539;82;21458;-56
2021/12/26 01:06:00;;;;;;;78.60;30.45;;;;;;;-9.56;83.72;97813.39;1735831;82;21417;-57
2021/12/26 01:08:30;;;;;;;88.17;31.82;;;;;;;-9.60;83.56;97808.11;1717530;83;20952;-57
2021/12/26 01:11:14;;;;;;;87.65;31.05;;;;;;;-9.71;83.82;97810.53;1717457;83;21041;-57
2021/12/26 01:13:38;;;;;;;72.95;28.45;;;;;;;-9.75;83.71;97811.31;1717138;83;21441;-57
2021/12/26 01:16:09;;;;;;;74.87;30.97;;;;;;;-9.70;83.98;97809.55;1740616;82;21404;-56
2021/12/26 01:18:40;;;;;;;88.85;34.88;;;;;;;-9.67;83.48;97804.80;1777482;80;21425;-57
2021/12/26 01:21:18;;;;;;;73.22;29.25;;;;;;;-9.68;83.66;97802.34;1773654;80;20991;-56
2021/12/26 01:23:47;;;;;;;81.02;31.77;;;;;;;-9.68;83.52;97802.34;1745472;81;21352;-56
2021/12/26 01:26:14;;;;;;;78.07;32.83;;;;;;;-9.67;83.62;97798.73;1743326;80;21064;-57
2021/12/26 01:28:41;;;;;;;73.10;27.40;;;;;;;-9.67;84.28;97804.80;1752092;82;20973;-57
2021/12/26 01:31:08;;;;;;;90.35;33.15;;;;;;;-9.64;83.51;97797.13;1749373;81;20977;-57
2021/12/26 01:33:35;;;;;;;82.10;32.85;;;;;;;-9.71;83.91;97793.48;1740471;82;20971;-57
2021/12/26 01:36:02;;;;;;;75.70;31.57;;;;;;;-9.66;83.83;97794.63;1739518;81;22040;-57
2021/12/26 01:38:29;;;;;;;83.87;31.17;;;;;;;-9.66;83.21;97792.01;1739900;82;21470;-57
2021/12/26 01:40:57;;;;;;;89.70;29.92;;;;;;;-9.76;83.04;97792.63;1773072;80;21048;-57
2021/12/26 01:43:27;;;;;;;69.97;28.62;;;;;;;-9.78;83.01;97793.28;1740231;81;21072;-56
2021/12/26 01:45:54;;;;;;;84.77;30.35;;;;;;;-9.82;83.02;97788.52;1773985;80;21037;-57
2021/12/26 01:48:23;;;;;;;69.72;27.95;;;;;;;-9.89;82.51;97786.19;1740112;81;21924;-56
2021/12/26 01:50:51;;;;;;;86.28;34.00;;;;;;;-10.00;83.02;97777.63;1737600;81;20966;-56
2021/12/26 01:53:20;;;;;;;82.42;29.92;;;;;;;-10.01;83.18;97780.38;1749575;81;21051;-57
2021/12/26 01:55:47;;;;;;;77.12;29.67;;;;;;;-10.00;83.13;97776.31;1749307;81;20977;-57
2021/12/26 01:58:21;;;;;;;75.75;31.52;;;;;;;-10.02;82.72;97772.19;1747476;80;21020;-57
2021/12/26 02:00:53;;;;;;;95.75;34.30;;;;;;;-10.09;83.13;97782.47;1745968;80;21472;-57
2021/12/26 02:03:20;;;;;;;88.90;34.18;;;;;;;-10.13;83.20;97782.95;1745330;81;21399;-57
2021/12/26 02:05:47;;;;;;;73.45;29.10;;;;;;;-10.16;83.55;97777.53;1743697;81;21017;-58
2021/12/26 02:08:14;;;;;;;98.25;35.17;;;;;;;-10.16;83.41;97778.84;1728972;82;21005;-58
2021/12/26 02:10:40;;;;;;;88.47;34.05;;;;;;;-10.17;83.25;97780.28;1717965;82;21020;-58
2021/12/26 02:13:07;;;;;;;89.87;33.65;;;;;;;-10.23;83.21;97773.92;1717603;83;22099;-58
2021/12/26 02:15:34;;;;;;;85.22;32.70;;;;;;;-10.23;83.33;97779.64;1717704;82;21409;-58
2021/12/26 02:18:01;;;;;;;62.67;28.65;;;;;;;-10.33;83.21;97782.37;1717713;82;21059;-58
2021/12/26 02:20:59;;;;;;;76.45;32.63;;;;;;;-10.31;83.59;97777.30;1717956;82;20957;-57
2021/12/26 02:23:24;;;;;;;75.17;31.55;;;;;;;-10.33;84.08;97778.45;1714313;83;21008;-58
2021/12/26 02:28:14;;;;;;;71.57;27.93;;;;;;;-10.41;84.01;97789.69;1717672;83;20984;-58
2021/12/26 02:30:41;;;;;;;57.40;25.27;;;;;;;-10.36;84.25;97786.59;1717954;82;21034;-57
2021/12/26 02:33:11;;;;;;;54.38;21.17;;;;;;;-10.34;83.34;97795.11;1717762;83;21417;-58
2021/12/26 02:35:39;;;;;;;;;;;;;;;-10.39;83.66;97787.73;1720495;82;21004;-58
2021/12/26 02:38:06;;;;;;;61.68;26.25;;;;;;;-10.41;83.82;97786.25;1717428;82;21047;-57
2021/12/26 02:40:35;;;;;;;76.25;28.05;;;;;;;-10.42;83.91;97789.84;1717881;82;20993;-57
2021/12/26 02:43:03;;;;;;;74.60;30.72;;;;;;;-10.41;83.34;97787.07;1712221;83;21064;-56
2021/12/26 02:45:31;;;;;;;83.67;29.72;;;;;;;-10.54;83.25;97784.02;1712092;83;21998;-58
2021/12/26 02:47:58;;;;;;;80.55;23.18;;;;;;;-10.55;83.07;97784.99;1713712;82;21520;-58
2021/12/26 02:50:29;;;;;;;62.00;24.67;;;;;;;-10.59;83.26;97788.91;1713955;83;21442;-58
2021/12/26 02:52:58;;;;;;;72.62;27.37;;;;;;;-10.54;83.10;97782.22;1716685;82;20988;-57
2021/12/26 02:55:26;;;;;;;85.80;30.80;;;;;;;-10.54;82.91;97778.78;1717914;82;20965;-58
2021/12/26 02:58:00;;;;;;;69.47;29.02;;;;;;;-10.58;83.41;97784.82;1717665;82;21016;-57
2021/12/26 03:00:31;;;;;;;77.17;29.63;;;;;;;-10.59;83.33;97782.36;1717951;82;20996;-57
2021/12/26 03:03:00;;;;;;;71.67;29.95;;;;;;;-10.65;82.50;97790.81;1717425;82;22046;-56
2021/12/26 03:05:28;;;;;;;;;;;;;;;-10.65;82.81;97786.40;1720379;82;21021;-59
2021/12/26 03:07:55;;;;;;;81.80;30.02;;;;;;;-10.67;82.16;97791.46;1717762;82;20428;-57
2021/12/26 03:10:24;;;;;;;90.05;37.17;;;;;;;-10.67;81.72;97794.08;1717836;82;21442;-56
2021/12/26 03:12:55;;;;;;;90.70;36.25;;;;;;;-10.78;81.97;97792.50;1713880;83;20996;-57
2021/12/26 03:15:22;;;;;;;100.15;42.43;;;;;;;-10.80;82.10;97797.07;1713357;83;21850;-57
2021/12/26 03:17:49;;;;;;;80.85;36.03;;;;;;;-10.78;81.72;97793.80;1712352;83;21532;-57
2021/12/26 03:20:19;;;;;;;94.58;36.68;;;;;;;-10.72;81.65;97791.08;1711995;83;21004;-57
2021/12/26 03:22:46;;;;;;;85.05;36.10;;;;;;;-10.74;81.83;97791.73;1717083;82;21011;-57
2021/12/26 03:25:21;;;;;;;88.17;37.40;;;;;;;-10.75;82.10;97796.63;1717872;82;20991;-57
2021/12/26 03:27:48;;;;;;;82.33;31.82;;;;;;;-10.73;82.57;97794.19;1713324;82;21169;-58
2021/12/26 03:30:22;;;;;;;89.17;33.02;;;;;;;-10.72;82.52;97789.28;1711905;83;20946;-58
2021/12/26 03:32:49;;;;;;;72.75;29.48;;;;;;;-10.69;82.60;97793.39;1711772;83;21437;-58
2021/12/26 03:35:18;;;;;;;58.73;24.37;;;;;;;-10.67;82.79;97793.59;1711968;83;20969;-58
2021/12/26 03:37:45;;;;;;;64.22;26.30;;;;;;;-10.61;82.75;97807.37;1711784;82;21032;-57
2021/12/26 03:40:12;;;;;;;69.25;24.65;;;;;;;-10.64;82.21;97805.06;1711908;83;21319;-58
2021/12/26 03:42:39;;;;;;;54.90;24.57;;;;;;;-10.57;82.22;97810.52;1713804;82;21489;-58
2021/12/26 03:45:07;;;;;;;75.28;26.57;;;;;;;-10.56;82.12;97809.06;1713986;83;21016;-57
2021/12/26 03:47:34;;;;;;;59.23;23.90;;;;;;;-10.52;82.20;97809.56;1711929;83;21407;-57
2021/12/26 03:50:06;;;;;;;63.02;23.57;;;;;;;-10.49;81.53;97812.39;1712015;83;21308;-58
2021/12/26 03:52:33;;;;;;;44.35;20.12;;;;;;;-10.52;80.81;97816.11;1713153;82;21534;-57
2021/12/26 03:55:00;;;;;;;61.18;24.27;;;;;;;-10.54;80.76;97818.89;1713830;83;21028;-58
2021/12/26 03:57:27;;;;;;;59.15;21.87;;;;;;;-10.56;81.02;97820.02;1715842;82;21386;-57
2021/12/26 03:59:54;;;;;;;40.03;19.20;;;;;;;-10.54;80.93;97819.38;1717763;82;21017;-57
2021/12/26 04:02:20;;;;;;;49.98;20.15;;;;;;;-10.61;80.46;97819.64;1717077;82;21021;-58
2021/12/26 04:04:47;;;;;;;58.85;22.17;;;;;;;-10.62;80.14;97818.82;1717877;82;22010;-58
2021/12/26 04:07:14;;;;;;;57.95;23.45;;;;;;;-10.65;80.16;97820.44;1714582;82;20992;-58
2021/12/26 04:09:41;;;;;;;46.18;21.48;;;;;;;-10.65;80.73;97816.52;1711867;83;21418;-57
2021/12/26 04:12:09;;;;;;;45.73;21.02;;;;;;;-10.60;80.82;97827.34;1712000;83;21005;-57
2021/12/26 04:14:36;;;;;;;49.20;19.62;;;;;;;-10.61;80.22;97827.01;1711872;83;21472;-58
2021/12/26 04:17:04;;;;;;;48.05;20.50;;;;;;;-10.58;80.57;97834.59;1714293;82;21026;-58
2021/12/26 04:19:31;;;;;;;55.05;22.30;;;;;;;-10.61;80.78;97835.36;1717692;82;21005;-58
2021/12/26 04:21:57;;;;;;;51.10;20.75;;;;;;;-10.70;80.70;97832.33;1715287;82;21072;-58
2021/12/26 04:24:25;;;;;;;43.08;20.15;;;;;;;-10.64;80.58;97835.67;1713914;83;20949;-58
2021/12/26 04:26:52;;;;;;;42.27;17.90;;;;;;;-10.64;80.72;97839.11;1713507;82;21000;-58
2021/12/26 04:29:19;;;;;;;52.05;20.40;;;;;;;-10.66;80.59;97842.86;1712054;83;21497;-57
2021/12/26 04:31:46;;;;;;;44.40;17.45;;;;;;;-10.65;80.84;97844.50;1712782;82;21016;-58
2021/12/26 04:34:13;;;;;;;41.05;18.40;;;;;;;-10.63;80.56;97845.98;1713730;83;21001;-58
2021/12/26 04:36:40;;;;;;;46.73;18.35;;;;;;;-10.75;79.68;97848.52;1714743;82;21484;-58
2021/12/26 04:39:07;;;;;;;50.52;19.05;;;;;;;-10.76;79.90;97859.96;1717925;82;21464;-58
2021/12/26 04:41:33;;;;;;;50.92;19.55;;;;;;;-10.73;80.30;97857.03;1718135;82;21303;-58
2021/12/26 04:44:00;;;;;;;46.80;18.60;;;;;;;-10.72;80.55;97859.16;1717914;82;20942;-57
2021/12/26 04:46:27;;;;;;;35.40;17.35;;;;;;;-10.72;81.06;97859.98;1717234;82;21397;-58
2021/12/26 04:48:54;;;;;;;63.17;28.62;;;;;;;-10.77;80.98;97863.52;1713902;83;21079;-58
2021/12/26 04:51:21;;;;;;;59.65;26.93;;;;;;;-10.83;81.11;97862.34;1713030;83;21064;-58
2021/12/26 04:53:48;;;;;;;66.05;28.12;;;;;;;-10.81;80.88;97869.56;1712261;83;21496;-58
2021/12/26 04:56:15;;;;;;;66.35;25.45;;;;;;;-10.77;80.80;97866.63;1712378;82;21538;-57
2021/12/26 04:58:42;;;;;;;58.85;23.95;;;;;;;-10.85;80.93;97868.68;1718005;83;21452;-58
2021/12/26 05:01:08;;;;;;;48.87;20.48;;;;;;;-10.92;79.89;97872.41;1716971;82;21056;-58
2021/12/26 05:03:36;;;;;;;50.25;20.17;;;;;;;-11.01;79.58;97871.16;1714159;83;21017;-58
2021/12/26 05:06:03;;;;;;;45.35;20.82;;;;;;;-11.08;79.45;97871.41;1712981;82;21372;-58
2021/12/26 05:08:30;;;;;;;49.65;18.32;;;;;;;-11.15;79.64;97869.38;1711967;83;20969;-58
2021/12/26 05:10:57;;;;;;;48.45;20.00;;;;;;;-11.16;79.70;97872.96;1711702;82;21556;-58
2021/12/26 05:13:24;;;;;;;47.58;20.88;;;;;;;-11.30;78.96;97868.70;1717763;83;21032;-58
2021/12/26 05:15:51;;;;;;;49.88;18.25;;;;;;;-11.26;79.40;97869.58;1717236;82;20965;-58
2021/12/26 05:18:17;;;;;;;44.20;19.65;;;;;;;-11.29;79.81;97866.41;1711619;83;21357;-58
2021/12/26 05:20:45;;;;;;;45.83;21.42;;;;;;;-11.27;80.77;97870.55;1711796;82;20949;-58
2021/12/26 05:23:12;;;;;;;41.25;18.95;;;;;;;-11.21;80.29;97859.97;1717366;82;21056;-58
2021/12/26 05:25:38;;;;;;;39.78;18.75;;;;;;;-11.15;80.01;97869.86;1717714;82;20985;-58
2021/12/26 05:28:05;;;;;;;51.73;21.75;;;;;;;-11.25;79.40;97865.99;1712140;82;21067;-58
2021/12/26 05:30:32;;;;;;;46.63;20.80;;;;;;;-11.30;78.90;97870.00;1712080;83;21361;-58
2021/12/26 05:32:59;;;;;;;55.03;26.77;;;;;;;-11.39;79.14;97869.09;1713553;82;21450;-58
2021/12/26 05:35:27;;;;;;;50.92;20.50;;;;;;;-11.38;80.31;97864.19;1713638;83;20966;-58
2021/12/26 05:37:54;;;;;;;42.13;17.30;;;;;;;-11.34;79.60;97864.74;1716891;82;21021;-58
2021/12/26 05:40:21;;;;;;;63.58;27.48;;;;;;;-11.36;79.36;97864.89;1717879;82;20961;-58
2021/12/26 05:42:48;;;;;;;50.45;22.73;;;;;;;-11.39;79.80;97870.39;1717552;82;21424;-58
2021/12/26 05:45:15;;;;;;;46.35;18.60;;;;;;;-11.39;79.67;97869.09;1718001;82;21051;-58
2021/12/26 05:47:42;;;;;;;52.27;23.12;;;;;;;-11.30;80.30;97870.00;1717965;83;20993;-58
2021/12/26 05:50:11;;;;;;;48.75;21.95;;;;;;;-11.27;80.23;97875.79;1717756;82;21004;-58
2021/12/26 05:52:39;;;;;;;59.55;24.98;;;;;;;-11.24;80.26;97868.94;1714860;83;21024;-58
2021/12/26 05:55:07;;;;;;;64.03;27.00;;;;;;;-11.25;80.24;97874.33;1713869;83;21025;-58
2021/12/26 05:57:34;;;;;;;49.60;19.70;;;;;;;-11.17;80.56;97873.94;1715563;83;21381;-58
2021/12/26 06:00:04;;;;;;;42.13;18.37;;;;;;;-11.30;78.93;97871.31;1717743;82;21456;-58
2021/12/26 06:02:31;;;;;;;51.20;18.05;;;;;;;-11.40;78.99;97873.50;1717301;82;20957;-58
2021/12/26 06:04:57;;;;;;;76.15;28.05;;;;;;;-11.44;78.59;97871.33;1717865;82;21046;-58
2021/12/26 06:07:24;;;;;;;80.30;32.80;;;;;;;-11.49;78.38;97878.30;1718005;82;21028;-58
2021/12/26 06:09:51;;;;;;;73.65;24.77;;;;;;;-11.59;78.77;97881.92;1717689;82;21004;-58
2021/12/26 06:12:18;;;;;;;88.58;35.75;;;;;;;-11.63;78.78;97877.94;1714452;82;21461;-58
2021/12/26 06:14:45;;;;;;;46.33;24.92;;;;;;;-11.63;79.21;97881.86;1711827;83;21527;-58
2021/12/26 06:17:12;;;;;;;57.83;23.40;;;;;;;-11.62;80.04;97878.27;1712870;83;20977;-58
2021/12/26 06:19:39;;;;;;;66.30;27.32;;;;;;;-11.57;79.75;97875.58;1714009;83;21386;-58
2021/12/26 06:22:06;;;;;;;98.45;38.20;;;;;;;-11.51;79.92;97878.93;1713391;83;20958;-58
2021/12/26 06:24:33;;;;;;;86.90;34.03;;;;;;;-11.51;79.20;97878.93;1714064;83;21040;-58
2021/12/26 06:27:00;;;;;;;81.10;33.92;;;;;;;-11.53;79.00;97875.64;1713071;83;21393;-58
2021/12/26 06:29:27;;;;;;;77.05;28.67;;;;;;;-11.57;79.03;97876.06;1712002;83;21008;-58
2021/12/26 06:31:54;;;;;;;73.02;32.00;;;;;;;-11.57;78.95;97882.11;1715049;82;21411;-58
2021/12/26 06:34:21;;;;;;;56.50;25.35;;;;;;;-11.64;79.21;97882.34;1717965;82;21065;-58
2021/12/26 06:36:48;;;;;;;69.90;30.20;;;;;;;-11.68;79.11;97881.81;1716747;83;21024;-58
2021/12/26 06:39:14;;;;;;;178.42;58.90;;;;;;;-11.72;79.24;97882.23;1713936;83;21404;-58
2021/12/26 06:41:41;;;;;;;133.07;48.17;;;;;;;-11.76;79.27;97886.94;1714628;82;21528;-58
2021/12/26 06:44:08;;;;;;;96.47;40.43;;;;;;;-11.79;79.23;97884.62;1717932;82;21063;-58
2021/12/26 06:46:36;;;;;;;135.75;57.65;;;;;;;-11.87;79.43;97891.06;1715901;81;21425;-58
2021/12/26 06:49:04;;;;;;;154.03;69.17;;;;;;;-11.87;79.41;97887.63;1712160;83;21456;-58
2021/12/26 06:51:32;;;;;;;154.40;62.13;;;;;;;-11.96;79.38;97880.98;1714162;82;20969;-58
2021/12/26 06:53:59;;;;;;;75.20;27.15;;;;;;;-11.87;79.58;97892.86;1718012;82;21012;-58
2021/12/26 06:56:26;;;;;;;433.90;190.57;;;;;;;-11.90;80.04;97891.34;1716786;82;21316;-58
2021/12/26 06:58:53;;;;;;;132.97;58.92;;;;;;;-12.04;79.53;97897.84;1717267;83;21007;-58
2021/12/26 07:01:20;;;;;;;125.58;50.98;;;;;;;-11.97;80.11;97898.09;1715389;82;21012;-58
2021/12/26 07:03:47;;;;;;;230.00;79.72;;;;;;;-12.04;80.55;97906.17;1711934;83;21088;-58
2021/12/26 07:06:14;;;;;;;274.40;114.17;;;;;;;-12.14;80.35;97908.77;1711617;82;21487;-58
2021/12/26 07:08:41;;;;;;;305.35;103.58;;;;;;;-12.19;79.98;97911.00;1712488;83;21336;-58
2021/12/26 07:11:08;;;;;;;237.60;88.92;;;;;;;-12.09;80.52;97917.52;1711557;83;21008;-58
2021/12/26 07:13:34;;;;;;;235.43;70.47;;;;;;;-12.13;80.72;97914.83;1710724;83;21013;-58
2021/12/26 07:16:02;;;;;;;178.05;57.73;;;;;;;-12.20;80.66;97915.89;1710327;82;21461;-58
2021/12/26 07:18:28;;;;;;;192.22;66.92;;;;;;;-12.09;80.81;97922.26;1710917;83;21521;-58
2021/12/26 07:20:55;;;;;;;184.10;68.40;;;;;;;-12.19;80.87;97920.14;1711466;82;21334;-58
2021/12/26 07:23:22;;;;;;;236.80;98.27;;;;;;;-12.05;81.03;97928.84;1717843;83;20977;-58
2021/12/26 07:25:49;;;;;;;111.50;43.50;;;;;;;-12.00;81.01;97936.27;1717009;82;21072;-58
2021/12/26 07:28:16;;;;;;;266.38;90.30;;;;;;;-11.91;80.85;97930.69;1718090;83;20992;-58
2021/12/26 07:30:43;;;;;;;448.37;179.47;;;;;;;-11.86;80.99;97927.17;1717700;82;20976;-58
2021/12/26 07:33:10;;;;;;;225.80;89.47;;;;;;;-11.84;80.64;97927.37;1714750;83;21156;-58
2021/12/26 07:35:37;;;;;;;232.70;92.10;;;;;;;-11.78;80.34;97926.78;1713857;83;21016;-58
2021/12/26 07:38:04;;;;;;;186.55;84.10;;;;;;;-11.76;80.56;97927.45;1711887;83;20966;-58
2021/12/26 07:40:31;;;;;;;131.10;57.13;;;;;;;-11.71;80.50;97929.14;1711877;83;21474;-58
2021/12/26 07:42:58;;;;;;;106.72;41.40;;;;;;;-11.70;80.29;97928.69;1716236;82;21508;-59
2021/12/26 07:45:25;;;;;;;122.07;53.48;;;;;;;-11.72;79.90;97935.83;1717727;82;21373;-58
2021/12/26 07:47:52;;;;;;;160.50;64.97;;;;;;;-11.78;79.65;97939.03;1717771;82;21456;-58
2021/12/26 07:50:18;;;;;;;138.92;56.55;;;;;;;-11.76;79.91;97939.70;1717908;82;21012;-57
2021/12/26 07:52:47;;;;;;;227.28;90.70;;;;;;;-11.61;79.64;97939.59;1713308;83;21010;-58
2021/12/26 07:55:14;;;;;;;225.53;85.20;;;;;;;-11.60;79.92;97938.62;1712038;83;21064;-58
2021/12/26 07:57:47;;;;;;;188.78;73.75;;;;;;;-11.59;79.40;97936.84;1711744;83;21446;-58
2021/12/26 08:00:12;;;;;;;156.32;59.25;;;;;;;-11.52;79.54;97940.53;1710892;83;21536;-58
2021/12/26 08:02:39;;;;;;;213.35;87.88;;;;;;;-11.39;79.59;97943.15;1716010;82;21527;-58
2021/12/26 08:05:08;;;;;;;150.32;62.13;;;;;;;-11.38;79.49;97943.97;1717893;82;21007;-58
2021/12/26 08:07:35;;;;;;;;;;;;;;;-11.28;79.55;97943.44;1715837;83;21020;-57
2021/12/26 08:10:03;;;;;;;142.35;52.55;;;;;;;-11.23;79.63;97941.23;1713967;83;21824;-58
2021/12/26 08:12:30;;;;;;;100.05;40.60;;;;;;;-11.16;79.21;97950.64;1716394;82;20977;-58
2021/12/26 08:14:59;;;;;;;149.90;58.48;;;;;;;-10.99;79.56;97949.05;1718066;82;20925;-58
2021/12/26 08:17:25;;;;;;;;;;;;;;;-10.96;79.55;97950.87;1720653;82;21409;-58
2021/12/26 08:19:52;;;;;;;100.18;45.45;;;;;;;-10.86;79.65;97952.95;1718106;82;20192;-58
2021/12/26 08:22:19;;;;;;;99.25;39.78;;;;;;;-10.77;78.93;97949.93;1718013;82;21690;-58
2021/12/26 08:24:46;;;;;;;145.05;52.53;;;;;;;-10.63;79.65;97952.05;1717812;82;21465;-58
2021/12/26 08:27:13;;;;;;;145.02;56.53;;;;;;;-10.70;78.59;97945.76;1714068;83;20977;-58
2021/12/26 08:29:40;;;;;;;144.13;53.68;;;;;;;-10.62;79.13;97943.70;1712140;83;21025;-58
2021/12/26 08:32:12;;;;;;;143.00;59.85;;;;;;;-10.49;79.00;97947.29;1715105;82;21048;-58
2021/12/26 08:34:37;;;;;;;150.00;61.68;;;;;;;-10.41;79.25;97940.33;1717749;82;21990;-58
2021/12/26 08:37:04;;;;;;;58.92;22.45;;;;;;;-10.33;79.02;97942.20;1715073;83;21018;-58
2021/12/26 08:39:35;;;;;;;95.72;37.58;;;;;;;-10.11;79.77;97944.31;1712226;83;21020;-58
2021/12/26 08:42:03;;;;;;;74.47;30.35;;;;;;;-10.12;79.38;97941.36;1714636;82;21441;-58
2021/12/26 08:44:30;;;;;;;78.62;31.82;;;;;;;-9.98;79.78;97946.56;1718287;82;21016;-58
2021/12/26 08:46:56;;;;;;;80.97;33.08;;;;;;;-9.99;79.21;97950.16;1717875;82;21450;-58
2021/12/26 08:49:23;;;;;;;74.27;27.20;;;;;;;-9.93;79.36;97944.28;1717970;82;21076;-58
2021/12/26 08:51:50;;;;;;;64.30;30.72;;;;;;;-9.79;79.37;97946.86;1715620;83;21025;-58
2021/12/26 08:54:17;;;;;;;266.98;93.82;;;;;;;-9.75;78.73;97950.80;1712261;83;21167;-58
2021/12/26 08:56:44;;;;;;;74.65;34.67;;;;;;;-9.79;78.58;97944.23;1712040;83;21418;-58
2021/12/26 08:59:11;;;;;;;126.65;50.95;;;;;;;-9.69;78.45;97941.84;1712403;83;21604;-58
2021/12/26 09:01:38;;;;;;;468.10;155.32;;;;;;;-9.73;78.25;97942.31;1711935;82;20962;-58
2021/12/26 09:04:05;;;;;;;99.97;38.95;;;;;;;-9.64;78.48;97936.15;1711853;83;21005;-58
2021/12/26 09:06:32;;;;;;;198.80;66.95;;;;;;;-9.53;78.47;97935.06;1712082;83;20997;-58
2021/12/26 09:08:59;;;;;;;194.40;67.37;;;;;;;-9.44;78.45;97938.88;1714251;83;20996;-57
2021/12/26 09:11:26;;;;;;;705.95;257.15;;;;;;;-9.40;78.25;97938.06;1713524;83;22027;-58
2021/12/26 09:13:53;;;;;;;568.67;208.20;;;;;;;-9.33;78.29;97936.96;1712063;83;20957;-58
2021/12/26 09:16:20;;;;;;;466.38;161.25;;;;;;;-9.24;77.77;97932.91;1711315;83;21032;-58
2021/12/26 09:18:46;;;;;;;708.30;276.42;;;;;;;-9.15;78.21;97924.08;1718222;83;21385;-58
2021/12/26 09:21:13;;;;;;;118.47;46.30;;;;;;;-9.04;77.82;97919.06;1717791;82;20972;-58
2021/12/26 09:23:40;;;;;;;75.50;31.65;;;;;;;-8.94;77.53;97909.73;1717982;83;21388;-58
2021/12/26 09:26:07;;;;;;;117.30;46.35;;;;;;;-8.93;77.31;97911.38;1716282;82;21068;-58
2021/12/26 09:28:36;;;;;;;75.85;30.25;;;;;;;-8.89;77.39;97908.25;1712220;83;20970;-58
2021/12/26 09:31:04;;;;;;;58.68;24.47;;;;;;;-8.81;77.49;97904.83;1712820;82;21037;-58
2021/12/26 09:33:33;;;;;;;167.57;62.85;;;;;;;-8.70;77.43;97906.36;1717799;83;21429;-58
2021/12/26 09:36:00;;;;;;;79.77;30.37;;;;;;;-8.64;77.54;97901.26;1716525;82;21388;-58
2021/12/26 09:38:28;;;;;;;253.55;88.52;;;;;;;-8.47;77.46;97896.85;1712201;83;21004;-58
2021/12/26 09:40:56;;;;;;;229.80;84.80;;;;;;;-8.41;77.63;97899.33;1712735;82;21033;-58
2021/12/26 09:43:23;;;;;;;186.52;71.05;;;;;;;-8.31;77.52;97902.09;1718018;83;21024;-58
2021/12/26 09:45:50;;;;;;;70.42;31.65;;;;;;;-8.21;77.15;97891.91;1717655;82;21036;-58
2021/12/26 09:48:17;;;;;;;67.95;29.25;;;;;;;-8.13;77.23;97894.05;1711901;83;21568;-58
2021/12/26 09:50:45;;;;;;;99.70;38.40;;;;;;;-8.05;77.19;97894.54;1711988;83;21008;-58
2021/12/26 09:53:13;;;;;;;85.42;33.65;;;;;;;-7.96;77.17;97893.05;1712318;83;21071;-58
2021/12/26 09:55:40;;;;;;;74.70;27.25;;;;;;;-7.86;77.25;97889.42;1712178;83;21441;-58
2021/12/26 09:58:07;;;;;;;112.60;44.35;;;;;;;-7.74;76.87;97891.55;1714065;83;20950;-58
2021/12/26 10:00:40;;;;;;;192.82;76.55;;;;;;;-7.70;76.57;97884.13;1714220;83;21261;-58
2021/12/26 10:03:22;;;;;;;137.55;49.03;;;;;;;-7.61;76.62;97879.18;1717285;83;21460;-58
2021/12/26 10:06:11;;;;;;;97.50;38.45;;;;;;;-7.52;76.41;97878.20;1717921;82;21040;-58
2021/12/26 10:09:00;;;;;;;148.45;60.95;;;;;;;-7.42;76.22;97872.23;1718037;83;21036;-58
2021/12/26 10:11:30;;;;;;;156.52;57.80;;;;;;;-7.33;76.02;97870.40;1716251;83;21509;-58
2021/12/26 10:14:09;;;;;;;101.65;36.85;;;;;;;-7.20;76.36;97870.66;1712280;83;21039;-57
2021/12/26 10:16:41;;;;;;;116.67;48.73;;;;;;;-7.05;75.89;97870.77;1711502;82;21334;-58
2021/12/26 10:19:08;;;;;;;297.27;125.55;;;;;;;-7.01;75.89;97870.73;1710424;83;20975;-58
2021/12/26 10:21:45;;;;;;;234.03;92.92;;;;;;;-6.91;76.19;97871.86;1712319;83;21438;-58
2021/12/26 10:24:26;;;;;;;105.52;41.80;;;;;;;-6.80;76.17;97877.23;1714275;83;21016;-58
2021/12/26 10:27:15;;;;;;;146.40;54.48;;;;;;;-6.65;76.36;97868.91;1712491;83;21431;-58
2021/12/26 10:29:46;;;;;;;124.25;49.30;;;;;;;-6.54;76.31;97868.00;1712223;83;21445;-58
2021/12/26 10:32:32;;;;;;;110.40;46.63;;;;;;;-6.45;75.94;97859.54;1712204;82;21405;-58
2021/12/26 10:35:03;;;;;;;105.90;41.33;;;;;;;-6.34;75.05;97859.12;1711719;83;21029;-58
2021/12/26 10:37:34;;;;;;;112.97;45.38;;;;;;;-6.18;75.98;97862.13;1714860;82;21055;-58
2021/12/26 10:40:06;;;;;;;128.30;50.17;;;;;;;-6.13;75.44;97860.29;1717873;82;21321;-58
2021/12/26 10:42:35;;;;;;;107.03;47.85;;;;;;;-6.14;75.09;97859.47;1713390;82;21017;-57
2021/12/26 10:45:12;;;;;;;142.40;56.98;;;;;;;-6.05;75.85;97857.59;1712155;83;21009;-58
2021/12/26 10:47:42;;;;;;;191.88;69.60;;;;;;;-5.97;74.71;97860.97;1715946;82;21023;-57
2021/12/26 10:50:13;;;;;;;103.80;44.18;;;;;;;-5.90;74.87;97855.74;1718121;82;21044;-57
2021/12/26 10:52:44;;;;;;;113.20;47.75;;;;;;;-5.82;73.57;97861.45;1718098;82;21563;-57
2021/12/26 10:55:15;;;;;;;114.90;50.45;;;;;;;-5.76;74.82;97860.73;1717163;82;21013;-57
2021/12/26 10:57:50;;;;;;;198.07;65.78;;;;;;;-5.68;75.17;97867.26;1717826;83;21449;-57
2021/12/26 11:00:21;;;;;;;101.33;41.95;;;;;;;-5.57;74.25;97860.20;1718029;82;21032;-58
2021/12/26 11:02:57;;;;;;;103.92;39.45;;;;;;;-5.52;74.29;97863.13;1714596;83;21073;-58
2021/12/26 11:05:31;;;;;;;99.97;43.75;;;;;;;-5.43;73.94;97862.54;1713982;83;20993;-58
2021/12/26 11:08:00;;;;;;;207.03;72.75;;;;;;;-5.47;73.73;97862.09;1713914;83;21009;-58
2021/12/26 11:10:40;;;;;;;112.55;44.98;;;;;;;-5.42;73.89;97864.17;1713879;83;20953;-58
2021/12/26 11:13:17;;;;;;;229.38;85.65;;;;;;;-5.28;73.69;97854.63;1717862;82;20957;-56
2021/12/26 11:15:46;;;;;;;66.87;26.12;;;;;;;-5.30;73.11;97846.86;1717733;82;21389;-59
2021/12/26 11:18:16;;;;;;;103.90;42.80;;;;;;;-5.20;72.88;97845.28;1718286;83;22061;-59